首页
METAR-TAF:

METAR-TAF

机场 :

伦敦绍森德机场

伦敦Southend, 英格兰

纬度: 51-34N, 经度: 000-42E, 海拔: 15米

当前天气观测

该预报发布于40分钟前的02:50 UTC
风速3节,风向西
温度 -2°C
湿度 100%
气压 1043 hPa
能見度: 8000

METAR: EGMC 210250Z 27003KT 8000 NSC M02/M02 Q1043

时间: 03:30 (03:30 UTC)

预报

该预报发布于1小时和33分钟前的01:57 UTC
预报有效从21日的 03点(UTC)到 21日的 12点(UTC)
风速3节,风向西转西南
能見度: 8000
几率 40%
从 21日的 03点(UTC)到 21日的 11点(UTC)
能見度: 3000
轻雾
几率 30% :
短暂存在
从 21日的 09点(UTC)到 21日的 12点(UTC)
多云层高于500英尺

TAF: EGMC 210157Z 2103/2112 25003KT 8000 NSC PROB40 2103/2111 3000 BR PROB30 TEMPO 2109/2112 BKN005

超过4000个机场的气象观测和天气预报(METAR&TAF报告)。

可查询的气象台以黄色和红色小点在地图上表示。

将鼠标移到小点上方,可查看气象台名称。

然后点击查看天气观测和预报。

如需切换地图:点击带黑十字的绿色按钮放大地图;点击带横线的绿色按钮缩小地图;或者点击绿色箭头查看邻近地区的地图。


METAR-TAF: